Terminal Aerodrome Forecast
Issued by NWS

Home | Current Version | Previous Version | Text Only | Print | Product List | Glossary On
Versions: 1 2 3 4 5 6 7 8 9 10 11 12 13 14 15 16 17 18 19 20 21
458
FTUS41 KBTV 181731
TAFMSS
TAF
KMSS 181731Z 1818/1918 23011KT P6SM VCSH SCT020 OVC045
      TEMPO 1818/1822 5SM -SHSN BR BKN020
     FM182200 22009KT P6SM VCSH OVC035
     FM190400 21005KT P6SM VCSH OVC035
     FM191200 22007KT P6SM OVC015=

USA.gov is the U.S. government's official web portal to all federal, state and local government web resources and services.